createdAt,value
2018-07-04T00:00:37.292Z,92.20
2018-07-04T00:03:17.019Z,91.60
2018-07-04T00:05:56.743Z,91.20
2018-07-04T00:08:36.217Z,91.00
2018-07-04T00:11:15.746Z,91.10
2018-07-04T00:13:55.464Z,91.30
2018-07-04T00:16:35.802Z,91.60
2018-07-04T00:19:15.453Z,91.10
2018-07-04T00:21:55.014Z,90.90
2018-07-04T00:24:34.608Z,91.10
2018-07-04T00:27:14.121Z,91.00
2018-07-04T00:29:53.705Z,90.90
2018-07-04T00:32:33.306Z,91.20
2018-07-04T00:35:12.805Z,90.60
2018-07-04T00:37:52.448Z,91.50
2018-07-04T00:40:32.025Z,91.60
2018-07-04T00:43:11.553Z,91.70
2018-07-04T00:45:51.106Z,91.70
2018-07-04T00:48:30.814Z,92.10
2018-07-04T00:51:10.399Z,92.40
2018-07-04T00:53:50.104Z,92.30
2018-07-04T00:56:29.742Z,92.40
2018-07-04T00:59:09.414Z,91.90
2018-07-04T01:01:49.218Z,92.50
2018-07-04T01:07:02.308Z,92.00
2018-07-04T01:09:41.884Z,91.40
2018-07-04T01:12:21.663Z,91.80
2018-07-04T01:15:01.189Z,92.10
2018-07-04T01:20:14.220Z,92.60
2018-07-04T01:22:53.697Z,92.70
2018-07-04T01:25:33.331Z,93.00
2018-07-04T01:28:13.026Z,93.30
2018-07-04T01:30:52.810Z,93.50
2018-07-04T01:33:32.421Z,93.70
2018-07-04T01:36:11.940Z,93.60
2018-07-04T01:38:51.475Z,93.70
2018-07-04T01:41:31.198Z,94.10
2018-07-04T01:44:10.878Z,94.10
2018-07-04T01:46:50.499Z,94.10
2018-07-04T01:49:30.102Z,94.30
2018-07-04T01:52:10.120Z,94.10
2018-07-04T01:54:49.725Z,94.20
2018-07-04T01:57:29.301Z,94.40
2018-07-04T02:00:08.825Z,94.80
2018-07-04T02:02:48.537Z,95.10
2018-07-04T02:05:28.335Z,95.10
2018-07-04T02:08:07.830Z,95.30
2018-07-04T02:10:47.279Z,95.40
2018-07-04T02:13:26.836Z,95.60
2018-07-04T02:16:06.422Z,95.50
2018-07-04T02:18:46.170Z,95.50
2018-07-04T02:23:59.301Z,95.80
2018-07-04T02:29:12.501Z,95.80
2018-07-04T02:31:52.370Z,95.90
2018-07-04T02:34:31.886Z,95.70
2018-07-04T02:37:11.632Z,95.70
2018-07-04T02:39:51.283Z,95.70
2018-07-04T02:42:31.026Z,95.70
2018-07-04T02:45:10.596Z,96.10
2018-07-04T02:47:50.309Z,96.30
2018-07-04T02:50:29.836Z,96.30
2018-07-04T02:53:09.439Z,96.40
2018-07-04T02:55:49.060Z,96.40
2018-07-04T02:58:28.659Z,96.50
2018-07-04T03:01:08.357Z,96.80
2018-07-04T03:06:21.431Z,97.10
2018-07-04T03:09:01.136Z,97.10
2018-07-04T03:11:40.765Z,97.10
2018-07-04T03:14:20.568Z,97.00
2018-07-04T03:17:00.177Z,97.10
2018-07-04T03:19:40.138Z,97.10
2018-07-04T03:22:19.725Z,97.00
2018-07-04T03:24:59.342Z,97.30
2018-07-04T03:27:38.999Z,97.30
2018-07-04T03:30:18.576Z,97.30
2018-07-04T03:32:58.259Z,97.10
2018-07-04T03:35:37.880Z,96.90
2018-07-04T03:38:17.627Z,97.00
2018-07-04T03:40:57.594Z,97.30
2018-07-04T03:43:37.549Z,97.70
2018-07-04T03:46:17.362Z,97.90
2018-07-04T03:48:57.140Z,97.80
2018-07-04T03:51:36.980Z,98.00
2018-07-04T03:54:16.652Z,97.80
2018-07-04T03:56:56.280Z,97.60
2018-07-04T03:59:36.328Z,97.60
2018-07-04T04:02:16.034Z,97.30
2018-07-04T04:04:55.539Z,97.30
2018-07-04T04:07:35.282Z,97.30
2018-07-04T04:10:14.909Z,97.70
2018-07-04T04:12:54.553Z,97.70
2018-07-04T04:15:34.252Z,97.50
2018-07-04T04:18:14.001Z,97.70
2018-07-04T04:20:53.639Z,97.40
2018-07-04T04:23:33.325Z,97.40
2018-07-04T04:26:12.943Z,97.20
2018-07-04T04:28:52.567Z,97.30
2018-07-04T04:31:32.110Z,97.60
2018-07-04T04:36:45.186Z,97.60
2018-07-04T04:39:24.968Z,97.30
2018-07-04T04:42:04.484Z,97.10
2018-07-04T04:44:44.176Z,97.40
2018-07-04T04:47:23.772Z,97.50
2018-07-04T04:50:03.413Z,97.50
2018-07-04T04:52:42.948Z,97.70
2018-07-04T04:55:22.682Z,97.80
2018-07-04T04:58:02.271Z,97.80
2018-07-04T05:00:41.957Z,97.80
2018-07-04T05:03:21.469Z,97.60
2018-07-04T05:06:01.245Z,97.70
2018-07-04T05:08:40.629Z,97.60
2018-07-04T05:11:20.240Z,97.40
2018-07-04T05:13:59.741Z,97.70
2018-07-04T05:16:39.413Z,97.70
2018-07-04T05:19:19.050Z,97.70
2018-07-04T05:21:59.208Z,97.80
2018-07-04T05:24:38.861Z,97.70
2018-07-04T05:27:18.342Z,97.80
2018-07-04T05:29:58.082Z,97.00
2018-07-04T05:32:37.553Z,96.80
2018-07-04T05:35:17.213Z,96.20
2018-07-04T05:37:56.918Z,96.10
2018-07-04T05:40:36.536Z,95.10
2018-07-04T05:43:16.266Z,95.00
2018-07-04T05:45:55.866Z,93.80
2018-07-04T05:48:35.525Z,93.70
2018-07-04T05:51:15.150Z,92.80
2018-07-04T05:53:54.877Z,92.40
2018-07-04T05:56:34.534Z,92.30
2018-07-04T05:59:14.265Z,92.20
2018-07-04T06:01:53.968Z,93.10
2018-07-04T06:04:33.764Z,93.60
2018-07-04T06:07:13.648Z,94.00
2018-07-04T06:09:53.349Z,93.70
2018-07-04T06:12:32.878Z,92.50
2018-07-04T06:15:12.592Z,91.80
2018-07-04T06:17:52.053Z,90.30
2018-07-04T06:20:31.858Z,90.00
2018-07-04T06:23:11.451Z,90.10
2018-07-04T06:25:50.932Z,90.40
2018-07-04T06:28:30.323Z,90.70
2018-07-04T06:31:10.082Z,90.00
2018-07-04T06:33:49.848Z,86.70
2018-07-04T06:36:29.326Z,86.30
2018-07-04T06:38:56.805Z,85.90
2018-07-04T06:41:24.802Z,84.90
2018-07-04T06:43:52.199Z,85.30
2018-07-04T06:46:19.559Z,83.10
2018-07-04T06:48:47.112Z,85.90
2018-07-04T06:51:14.350Z,80.90
2018-07-04T06:53:41.613Z,79.70
2018-07-04T06:56:08.937Z,78.00
2018-07-04T06:58:36.257Z,78.60
2018-07-04T07:01:03.642Z,79.30
2018-07-04T07:03:43.398Z,80.20
2018-07-04T07:06:23.285Z,80.10
2018-07-04T07:09:02.798Z,81.70
2018-07-04T07:11:42.489Z,83.30
2018-07-04T07:14:22.026Z,84.10
2018-07-04T07:17:01.731Z,84.60
2018-07-04T07:19:41.223Z,86.40
2018-07-04T07:22:20.897Z,87.10
2018-07-04T07:25:00.595Z,90.10
2018-07-04T07:27:40.240Z,90.90
2018-07-04T07:30:19.876Z,95.20
2018-07-04T07:32:59.604Z,95.20
2018-07-04T07:35:39.108Z,96.00
2018-07-04T07:38:18.809Z,95.80
2018-07-04T07:40:58.337Z,97.70
2018-07-04T07:43:37.959Z,97.40
2018-07-04T07:46:17.654Z,96.60
2018-07-04T07:48:57.349Z,96.70
2018-07-04T07:51:36.967Z,97.40
2018-07-04T07:54:16.633Z,96.10
2018-07-04T07:56:57.097Z,97.20
2018-07-04T07:59:36.587Z,96.40
2018-07-04T08:02:16.068Z,97.50
2018-07-04T08:04:55.632Z,96.40
2018-07-04T08:07:35.881Z,95.50
2018-07-04T08:10:15.528Z,94.30
2018-07-04T08:12:55.286Z,93.70
2018-07-04T08:15:34.793Z,92.10
2018-07-04T08:18:14.447Z,92.40
2018-07-04T08:20:53.985Z,93.10
2018-07-04T08:23:33.460Z,94.00
2018-07-04T08:26:13.635Z,95.50
2018-07-04T08:28:53.462Z,96.10
2018-07-04T08:31:33.255Z,96.20
2018-07-04T08:34:13.009Z,97.20
2018-07-04T08:36:52.561Z,98.30
2018-07-04T08:39:32.156Z,98.30
2018-07-04T08:42:11.826Z,99.90
2018-07-04T08:44:51.424Z,99.90
2018-07-04T08:47:31.075Z,99.90
2018-07-04T08:50:10.898Z,99.90
2018-07-04T08:52:50.492Z,99.90
2018-07-04T08:55:30.046Z,99.90
2018-07-04T08:58:09.763Z,99.90
2018-07-04T09:00:49.525Z,99.90
2018-07-04T09:03:29.175Z,99.80
2018-07-04T09:06:08.721Z,99.90
2018-07-04T09:08:48.326Z,98.80
2018-07-04T09:11:27.960Z,99.20
2018-07-04T09:14:07.745Z,99.90
2018-07-04T09:16:47.466Z,99.90
2018-07-04T09:19:27.299Z,96.90
2018-07-04T09:22:08.015Z,97.40
2018-07-04T09:24:47.592Z,98.90
2018-07-04T09:27:27.442Z,97.70
2018-07-04T09:30:07.225Z,97.40
2018-07-04T09:32:46.770Z,99.90
2018-07-04T09:35:27.262Z,97.30
2018-07-04T09:38:07.990Z,96.10
2018-07-04T09:40:47.680Z,98.00
2018-07-04T09:43:27.291Z,96.70
2018-07-04T09:46:07.045Z,97.30
2018-07-04T09:48:46.861Z,97.10
2018-07-04T09:51:26.431Z,95.80
2018-07-04T09:54:06.068Z,96.40
2018-07-04T09:56:45.611Z,95.40
2018-07-04T09:59:25.737Z,95.00
2018-07-04T10:02:05.333Z,94.40
2018-07-04T10:04:45.605Z,90.90
2018-07-04T10:07:25.319Z,90.00
2018-07-04T10:10:04.947Z,91.10
2018-07-04T10:15:18.232Z,89.90
2018-07-04T10:17:57.987Z,90.00
2018-07-04T10:20:37.599Z,92.20
2018-07-04T10:23:17.352Z,88.50
2018-07-04T10:25:57.038Z,92.40
2018-07-04T10:28:36.688Z,90.10
2018-07-04T10:31:16.310Z,91.70
2018-07-04T10:33:55.768Z,90.40
2018-07-04T10:36:35.413Z,85.40
2018-07-04T10:39:14.941Z,89.50
2018-07-04T10:41:54.630Z,84.70
2018-07-04T10:44:34.762Z,83.50
2018-07-04T10:47:14.462Z,82.20
2018-07-04T10:49:54.000Z,81.20
2018-07-04T10:52:33.577Z,83.30
2018-07-04T10:55:13.218Z,84.80
2018-07-04T10:57:52.746Z,83.10
2018-07-04T11:00:32.557Z,82.50
2018-07-04T11:03:12.153Z,83.90
2018-07-04T11:05:52.309Z,85.10
2018-07-04T11:08:31.931Z,86.70
2018-07-04T11:11:11.635Z,89.50
2018-07-04T11:13:51.500Z,90.80
2018-07-04T11:16:31.217Z,89.80
2018-07-04T11:19:10.869Z,90.90
2018-07-04T11:21:50.607Z,91.10
2018-07-04T11:24:30.143Z,91.70
2018-07-04T11:27:09.881Z,92.40
2018-07-04T11:29:49.517Z,92.70
2018-07-04T11:32:29.213Z,93.20
2018-07-04T11:35:08.873Z,93.90
2018-07-04T11:37:48.431Z,94.80
2018-07-04T11:40:28.035Z,94.60
2018-07-04T11:43:07.737Z,95.60
2018-07-04T11:45:47.359Z,95.70
2018-07-04T11:48:14.657Z,96.20
2018-07-04T11:50:41.899Z,96.20
2018-07-04T11:53:09.221Z,96.00
2018-07-04T11:55:36.491Z,95.50
2018-07-04T11:58:03.784Z,95.30
2018-07-04T12:00:31.087Z,95.50
2018-07-04T12:02:58.363Z,95.30
2018-07-04T12:05:38.093Z,95.20
2018-07-04T12:08:05.336Z,95.30
2018-07-04T12:10:32.609Z,96.10
2018-07-04T12:12:59.912Z,96.20
2018-07-04T12:15:27.196Z,96.60
2018-07-04T12:17:54.443Z,96.70
2018-07-04T12:20:21.770Z,97.40
2018-07-04T12:22:49.034Z,97.40
2018-07-04T12:25:16.316Z,97.60
2018-07-04T12:30:11.114Z,97.70
2018-07-04T12:35:05.947Z,96.90
2018-07-04T12:37:33.320Z,95.60
2018-07-04T12:40:00.540Z,96.30
2018-07-04T12:42:27.876Z,96.30
2018-07-04T12:44:55.145Z,96.20
2018-07-04T12:47:22.546Z,95.60
2018-07-04T12:49:49.742Z,96.20
2018-07-04T12:52:16.996Z,94.80
2018-07-04T12:54:49.625Z,94.70
2018-07-04T12:57:29.241Z,93.90
2018-07-04T13:02:42.365Z,93.70
2018-07-04T13:05:21.943Z,94.00
2018-07-04T13:08:01.522Z,93.70
2018-07-04T13:10:40.970Z,92.30
2018-07-04T13:13:20.476Z,92.70
2018-07-04T13:16:00.182Z,93.40
2018-07-04T13:21:13.686Z,92.70
2018-07-04T13:23:53.285Z,93.00
2018-07-04T13:26:32.969Z,94.00
2018-07-04T13:29:12.492Z,92.90
2018-07-04T13:31:52.200Z,93.00
2018-07-04T13:34:31.723Z,92.90
2018-07-04T13:37:11.372Z,93.70
2018-07-04T13:42:24.820Z,92.70
2018-07-04T13:45:04.253Z,90.10
2018-07-04T13:47:43.849Z,90.60
2018-07-04T13:50:23.455Z,89.60
2018-07-04T13:53:03.115Z,86.60
2018-07-04T13:55:42.731Z,82.90
2018-07-04T13:58:22.179Z,84.30
2018-07-04T14:01:02.002Z,81.00
2018-07-04T14:03:41.622Z,80.70
2018-07-04T14:08:54.562Z,76.70
2018-07-04T14:11:34.206Z,78.40
2018-07-04T14:14:13.635Z,80.20
2018-07-04T14:16:53.212Z,82.80
2018-07-04T14:22:06.592Z,83.80
2018-07-04T14:24:46.145Z,82.50
2018-07-04T14:27:25.849Z,83.40
2018-07-04T14:30:05.455Z,85.10
2018-07-04T14:32:45.160Z,82.00
2018-07-04T14:35:24.515Z,82.70
2018-07-04T14:38:04.127Z,82.10
2018-07-04T14:40:43.743Z,83.80
2018-07-04T14:43:23.407Z,84.20
2018-07-04T14:48:36.639Z,88.70
2018-07-04T14:51:16.312Z,91.30
2018-07-04T14:56:29.296Z,95.10
2018-07-04T14:59:08.875Z,97.60
2018-07-04T15:01:48.414Z,99.60
2018-07-04T15:04:28.227Z,99.90
2018-07-04T15:07:07.801Z,99.90
2018-07-04T15:09:47.278Z,99.90
2018-07-04T15:12:26.771Z,99.90
2018-07-04T15:15:06.424Z,99.90
2018-07-04T15:17:45.956Z,99.90
2018-07-04T15:20:25.554Z,99.90
2018-07-04T15:23:05.128Z,99.90
2018-07-04T15:25:44.784Z,99.90
2018-07-04T15:28:24.301Z,99.90
2018-07-04T15:31:04.002Z,99.90
2018-07-04T15:33:43.704Z,99.90
2018-07-04T15:36:23.402Z,99.90
2018-07-04T15:39:03.235Z,99.90
2018-07-04T15:41:42.940Z,99.90
2018-07-04T15:44:22.549Z,99.90
2018-07-04T15:47:02.209Z,99.90
2018-07-04T15:49:45.964Z,99.90
2018-07-04T15:52:25.531Z,99.90
2018-07-04T15:55:05.006Z,99.90
2018-07-04T15:57:44.733Z,99.90
2018-07-04T16:00:24.216Z,99.90
2018-07-04T16:03:03.749Z,99.90
2018-07-04T16:05:43.541Z,99.90
2018-07-04T16:08:23.085Z,99.90
2018-07-04T16:11:02.563Z,99.90
2018-07-04T16:13:42.229Z,99.90
2018-07-04T16:16:21.742Z,99.90
2018-07-04T16:21:36.214Z,99.90
2018-07-04T16:24:15.829Z,99.90
2018-07-04T16:26:55.282Z,99.90
2018-07-04T16:29:34.855Z,99.90
2018-07-04T16:32:14.569Z,99.90
2018-07-04T16:34:54.206Z,99.90
2018-07-04T16:37:33.857Z,99.90
2018-07-04T16:40:13.428Z,99.90
2018-07-04T16:42:53.188Z,99.90
2018-07-04T16:45:32.891Z,99.90
2018-07-04T16:48:12.392Z,99.90
2018-07-04T16:50:52.003Z,99.90
2018-07-04T16:53:31.532Z,99.90
2018-07-04T16:56:11.157Z,99.90
2018-07-04T16:58:50.788Z,99.90
2018-07-04T17:01:30.482Z,98.30
2018-07-04T17:04:09.942Z,95.20
2018-07-04T17:06:49.730Z,92.50
2018-07-04T17:09:29.156Z,90.60
2018-07-04T17:12:08.643Z,88.00
2018-07-04T17:14:48.414Z,85.10
2018-07-04T17:17:27.880Z,84.70
2018-07-04T17:20:07.571Z,84.90
2018-07-04T17:22:47.225Z,85.00
2018-07-04T17:25:26.878Z,87.80
2018-07-04T17:28:06.482Z,88.30
2018-07-04T17:30:46.073Z,89.90
2018-07-04T17:33:25.607Z,90.00
2018-07-04T17:36:05.073Z,91.00
2018-07-04T17:38:44.561Z,91.60
2018-07-04T17:41:24.144Z,92.30
2018-07-04T17:44:03.646Z,92.00
2018-07-04T17:46:43.111Z,93.80
2018-07-04T17:49:22.676Z,94.40
2018-07-04T17:52:02.151Z,93.70
2018-07-04T17:54:41.628Z,95.30
2018-07-04T17:57:21.266Z,95.10
2018-07-04T18:00:00.961Z,95.30
2018-07-04T18:02:40.517Z,95.80
2018-07-04T18:05:20.130Z,96.10
2018-07-04T18:07:59.736Z,96.90
2018-07-04T18:10:39.275Z,97.00
2018-07-04T18:13:18.918Z,97.00
2018-07-04T18:15:58.533Z,97.20
2018-07-04T18:18:38.037Z,97.40
2018-07-04T18:21:23.712Z,97.60
2018-07-04T18:24:06.699Z,97.10
2018-07-04T18:26:46.550Z,97.90
2018-07-04T18:29:26.241Z,98.50
2018-07-04T18:32:06.520Z,97.90
2018-07-04T18:34:46.304Z,98.60
2018-07-04T18:37:26.293Z,98.80
2018-07-04T18:40:05.983Z,99.20
2018-07-04T18:42:45.483Z,99.80
2018-07-04T18:45:25.018Z,99.90
2018-07-04T18:48:04.628Z,99.90
2018-07-04T18:50:44.146Z,99.90
2018-07-04T18:53:23.687Z,99.90
2018-07-04T18:56:03.424Z,99.90
2018-07-04T18:58:43.049Z,99.90
2018-07-04T19:01:22.626Z,99.90
2018-07-04T19:04:02.177Z,99.90
2018-07-04T19:06:41.651Z,99.90
2018-07-04T19:09:22.517Z,99.90
2018-07-04T19:12:02.148Z,99.90
2018-07-04T19:14:41.783Z,99.90
2018-07-04T19:17:21.491Z,99.90
2018-07-04T19:20:01.170Z,99.90
2018-07-04T19:22:40.873Z,99.90
2018-07-04T19:25:20.586Z,99.90
2018-07-04T19:28:00.341Z,99.90
2018-07-04T19:30:40.050Z,99.90
2018-07-04T19:33:19.877Z,99.90
2018-07-04T19:35:59.328Z,99.90
2018-07-04T19:38:39.050Z,99.90
2018-07-04T19:41:18.543Z,99.90
2018-07-04T19:43:58.180Z,99.90
2018-07-04T19:46:37.834Z,99.90
2018-07-04T19:49:17.564Z,99.90
2018-07-04T19:51:57.176Z,99.90
2018-07-04T19:54:36.869Z,99.90
2018-07-04T19:57:16.311Z,99.90
2018-07-04T19:59:55.881Z,99.90
2018-07-04T20:02:35.525Z,99.90
2018-07-04T20:05:15.204Z,99.90
2018-07-04T20:07:54.765Z,99.90
2018-07-04T20:10:34.226Z,99.90
2018-07-04T20:15:47.502Z,99.90
2018-07-04T20:18:27.052Z,99.90
2018-07-04T20:21:06.533Z,99.90
2018-07-04T20:23:46.095Z,99.90
2018-07-04T20:26:25.760Z,99.90
2018-07-04T20:29:05.577Z,99.90
2018-07-04T20:31:45.327Z,99.90
2018-07-04T20:34:24.814Z,99.90
2018-07-04T20:37:04.461Z,99.90
2018-07-04T20:39:43.948Z,99.90
2018-07-04T20:42:23.633Z,99.90
2018-07-04T20:45:03.182Z,99.90
2018-07-04T20:47:42.931Z,99.90
2018-07-04T20:50:22.566Z,99.90
2018-07-04T20:53:02.114Z,99.90
2018-07-04T20:55:41.892Z,99.90
2018-07-04T20:58:21.430Z,99.90
2018-07-04T21:01:01.018Z,99.90
2018-07-04T21:03:40.641Z,99.90
2018-07-04T21:06:20.311Z,99.90
2018-07-04T21:09:00.000Z,99.90
2018-07-04T21:11:39.577Z,99.90
2018-07-04T21:14:19.130Z,99.90
2018-07-04T21:16:58.682Z,99.90
2018-07-04T21:19:38.349Z,99.90
2018-07-04T21:22:17.871Z,99.90
2018-07-04T21:24:57.377Z,99.90
2018-07-04T21:30:10.655Z,99.90
2018-07-04T21:32:50.239Z,99.90
2018-07-04T21:35:29.863Z,99.90
2018-07-04T21:38:09.504Z,99.90
2018-07-04T21:40:49.213Z,99.90
2018-07-04T21:43:28.735Z,99.90
2018-07-04T21:46:08.402Z,99.90
2018-07-04T21:48:47.847Z,99.90
2018-07-04T21:51:27.366Z,99.90
2018-07-04T21:54:07.023Z,99.90
2018-07-04T21:56:46.727Z,99.90
2018-07-04T21:59:26.427Z,99.90
2018-07-04T22:02:06.016Z,99.90
2018-07-04T22:04:45.598Z,99.90
2018-07-04T22:07:25.368Z,99.90
2018-07-04T22:10:05.111Z,99.90
2018-07-04T22:12:44.723Z,99.90
2018-07-04T22:15:24.389Z,99.90
2018-07-04T22:18:04.060Z,99.90
2018-07-04T22:20:43.735Z,99.90
2018-07-04T22:23:23.241Z,99.90
2018-07-04T22:26:02.875Z,99.90
2018-07-04T22:28:42.419Z,99.90
2018-07-04T22:31:22.070Z,99.90
2018-07-04T22:34:01.665Z,99.90
2018-07-04T22:36:41.339Z,99.90
2018-07-04T22:39:21.057Z,99.90
2018-07-04T22:42:00.624Z,99.90
2018-07-04T22:44:40.288Z,99.90
2018-07-04T22:47:19.867Z,99.90
2018-07-04T22:49:59.409Z,99.90
2018-07-04T22:52:39.088Z,99.90
2018-07-04T22:55:18.745Z,99.90
2018-07-04T22:57:58.316Z,99.90
2018-07-04T23:00:37.952Z,99.90
2018-07-04T23:03:17.499Z,99.90
2018-07-04T23:05:57.148Z,99.90
2018-07-04T23:08:36.759Z,99.90
2018-07-04T23:11:16.244Z,99.90
2018-07-04T23:13:55.827Z,99.90
2018-07-04T23:16:35.602Z,99.90
2018-07-04T23:19:15.118Z,99.90
2018-07-04T23:21:54.644Z,99.90
2018-07-04T23:24:34.189Z,99.90
2018-07-04T23:27:13.822Z,99.90
2018-07-04T23:29:53.333Z,99.90
2018-07-04T23:32:32.855Z,99.90
2018-07-04T23:35:12.544Z,99.90
2018-07-04T23:37:52.050Z,99.90
2018-07-04T23:40:31.652Z,99.90
2018-07-04T23:43:11.277Z,99.90
2018-07-04T23:45:50.893Z,99.90
2018-07-04T23:48:30.572Z,99.90
2018-07-04T23:51:10.077Z,99.90
2018-07-04T23:53:49.728Z,99.90
2018-07-04T23:56:29.276Z,99.90
2018-07-04T23:59:08.908Z,99.90
